Bookmark and Share
Track history (hours):
 

Siteam Jupiter

Last reported at 2014-Feb-28 09:18 UTC. Time now 2014-Apr-23 09:17 UTC.
Position N 34°42' E 139°45'.
Warning: this ship's position is 53 days out of date.

Length 181 m; draft 11.9 m.

Type: Ship (hazmat cat B). MMSI: 636091062.

NotesDate/timePositionNaut miles runAvg speedWind from/ knotsBaromVisibWave heightAir tempDewpointWater temp
2014-Feb-28 09:18N 34°42' E 139°45'912.4
2014-Feb-28 08:33N 34°51' E 139°41'1211.8
2014-Feb-28 07:33N 35°03' E 139°41'1110.6
2014-Feb-28 06:33N 35°12' E 139°46'1111.0
2014-Feb-28 05:33N 35°23' E 139°42'1211.7
2014-Feb-28 04:34N 35°31' E 139°53'3 3.2
2014-Feb-28 03:30N 35°33' E 139°56'0 0.1
2014-Feb-28 02:33N 35°33' E 139°56'0 0.1
2014-Feb-28 01:33N 35°33' E 139°56'2 2.3
2014-Feb-28 00:33N 35°31' E 139°54'1211.8
2014-Feb-27 23:33N 35°22' E 139°45'1010.3
2014-Feb-27 22:33N 35°12' E 139°47'6 6.3
2014-Feb-27 21:33N 35°06' E 139°44'11 5.6
2014-Feb-27 19:33N 34°55' E 139°42'10 9.5
2014-Feb-27 18:33N 34°50' E 139°52'9 8.9
2014-Feb-27 17:33N 34°49' E 140°03'3 2.8
2014-Feb-27 16:31N 34°47' E 140°05'7 0.4
2014-Feb-26 23:25N 34°46' E 139°57'2 1.4
2014-Feb-26 22:07N 34°44' E 139°56'0 0.4
2014-Feb-26 21:07N 34°44' E 139°56'2 0.8
2014-Feb-26 18:30N 34°45' E 139°58'1 1.1
2014-Feb-26 17:30N 34°45' E 139°57'1 0.5
2014-Feb-26 15:31N 34°44' E 139°56'6 5.8
2014-Feb-26 14:33N 34°48' E 140°01'6 6.4
2014-Feb-26 13:32N 34°51' E 140°08'7 6.4
2014-Feb-26 12:23N 34°56' E 140°15'5 6.1
2014-Feb-26 11:33N 34°59' E 140°20'9 6.2
2014-Feb-26 10:11N 35°04' E 140°28'26 6.6
2014-Feb-26 06:12N 35°23' E 140°51'5 6.6
2014-Feb-26 05:23N 35°28' E 140°54'29 7.1
2014-Feb-26 01:16N 35°57' E 140°51'7 9.0
2014-Feb-26 00:33N 35°59' E 140°43'4 2.6
2014-Feb-25 23:08N 35°55' E 140°42'0 0.0
2014-Feb-25 21:20N 35°55' E 140°42'0 0.0
2014-Feb-25 20:20N 35°55' E 140°42'0 0.0
2014-Feb-25 19:20N 35°55' E 140°42'0 0.0
2014-Feb-25 03:08N 35°55' E 140°42'0 0.0
2014-Feb-25 02:33N 35°55' E 140°42'6 5.6
2014-Feb-25 01:30N 35°60' E 140°46'1511.6
2014-Feb-25 00:15N 35°50' E 140°59'  
2014-Feb-20 22:30N 37°50' E 122°42'21712.0
2014-Feb-20 04:24N 38°51' E 118°16'911.0
2014-Feb-20 03:33N 38°50' E 118°04'8 8.5
2014-Feb-20 02:33N 38°55' E 117°54'8 7.6
2014-Feb-20 01:33N 38°57' E 117°45'0 0.2
2014-Feb-20 00:27N 38°57' E 117°45'0 0.0
2014-Feb-19 23:33N 38°57' E 117°45'0 0.0
2014-Feb-19 22:33N 38°57' E 117°45'0 0.0
2014-Feb-19 21:33N 38°57' E 117°45'0 0.0
2014-Feb-19 20:33N 38°57' E 117°45'0 0.0
2014-Feb-19 19:33N 38°57' E 117°45'0 0.0
2014-Feb-19 18:27N 38°57' E 117°45'0 0.0
2014-Feb-19 17:33N 38°57' E 117°45'0 0.0
2014-Feb-19 16:33N 38°57' E 117°45'0 0.0
2014-Feb-19 15:33N 38°57' E 117°45'0 0.0
2014-Feb-19 14:33N 38°57' E 117°45'0 0.0
2014-Feb-19 13:33N 38°57' E 117°45'0 0.0
2014-Feb-19 12:33N 38°57' E 117°45'0 0.0
2014-Feb-19 11:33N 38°57' E 117°45'0 0.0
2014-Feb-19 10:33N 38°57' E 117°45'0 0.0
2014-Feb-19 09:21N 38°57' E 117°45'0 0.0
2014-Feb-19 08:33N 38°57' E 117°45'0 0.0
2014-Feb-19 07:33N 38°57' E 117°45'0 0.0
2014-Feb-19 06:30N 38°57' E 117°45'0 0.0
2014-Feb-19 05:33N 38°57' E 117°45'0 0.0
2014-Feb-19 04:33N 38°57' E 117°45'0 0.0
2014-Feb-19 03:33N 38°57' E 117°45'0 0.0
2014-Feb-19 02:33N 38°57' E 117°45'0 0.0
2014-Feb-19 01:33N 38°57' E 117°45'0 0.0
2014-Feb-19 00:33N 38°57' E 117°45'0 0.0
2014-Feb-18 23:33N 38°57' E 117°45'0 0.0
2014-Feb-18 22:33N 38°57' E 117°45'0 0.0
2014-Feb-18 21:33N 38°57' E 117°45'0 0.0
2014-Feb-18 20:33N 38°57' E 117°45'0 0.0
2014-Feb-18 19:33N 38°57' E 117°45'0 0.0
2014-Feb-18 18:27N 38°57' E 117°45'0 0.0
2014-Feb-18 17:33N 38°57' E 117°45'0 0.0
2014-Feb-18 16:33N 38°57' E 117°45'0 0.0
2014-Feb-18 15:33N 38°57' E 117°45'0 0.0
2014-Feb-18 14:33N 38°57' E 117°45'0 0.0
2014-Feb-18 13:30N 38°57' E 117°45'0 0.0
2014-Feb-18 12:33N 38°57' E 117°45'0 0.0
2014-Feb-18 11:33N 38°57' E 117°45'0 0.4
2014-Feb-18 10:33N 38°57' E 117°45'8 8.2
2014-Feb-18 09:33N 38°54' E 117°55'  

Dump ship's entire track history

sailing weather and tide predictions

Siteam Jupiter — A8JA6 — position and weather